sensor_id;sensor_type;location;lat;lon;timestamp;temperature;humidity
4453;DHT22;2239;48.152;11.584;2024-03-06T00:01:32;7.10;99.90
4453;DHT22;2239;48.152;11.584;2024-03-06T00:03:58;7.10;99.90
4453;DHT22;2239;48.152;11.584;2024-03-06T00:06:24;7.10;99.90
4453;DHT22;2239;48.152;11.584;2024-03-06T00:08:50;7.20;99.90
4453;DHT22;2239;48.152;11.584;2024-03-06T00:11:15;7.20;99.90
4453;DHT22;2239;48.152;11.584;2024-03-06T00:13:41;7.10;99.90
4453;DHT22;2239;48.152;11.584;2024-03-06T00:16:06;7.20;99.90
4453;DHT22;2239;48.152;11.584;2024-03-06T00:18:32;7.10;99.90
4453;DHT22;2239;48.152;11.584;2024-03-06T00:20:58;7.20;99.90
4453;DHT22;2239;48.152;11.584;2024-03-06T00:23:24;7.20;99.90
4453;DHT22;2239;48.152;11.584;2024-03-06T00:25:49;7.10;99.90
4453;DHT22;2239;48.152;11.584;2024-03-06T00:28:15;7.20;99.90
4453;DHT22;2239;48.152;11.584;2024-03-06T00:30:40;7.20;99.90
4453;DHT22;2239;48.152;11.584;2024-03-06T00:33:07;7.20;99.90
4453;DHT22;2239;48.152;11.584;2024-03-06T00:35:32;7.20;99.90
4453;DHT22;2239;48.152;11.584;2024-03-06T00:37:58;7.20;99.90
4453;DHT22;2239;48.152;11.584;2024-03-06T00:40:28;7.20;99.90
4453;DHT22;2239;48.152;11.584;2024-03-06T00:42:56;7.20;99.90
4453;DHT22;2239;48.152;11.584;2024-03-06T00:45:22;7.20;99.90
4453;DHT22;2239;48.152;11.584;2024-03-06T00:47:48;7.20;99.90
4453;DHT22;2239;48.152;11.584;2024-03-06T00:50:13;7.10;99.90
4453;DHT22;2239;48.152;11.584;2024-03-06T00:52:39;7.10;99.90
4453;DHT22;2239;48.152;11.584;2024-03-06T00:55:05;7.10;99.90
4453;DHT22;2239;48.152;11.584;2024-03-06T00:57:30;7.10;99.90
4453;DHT22;2239;48.152;11.584;2024-03-06T00:59:56;7.10;99.90
4453;DHT22;2239;48.152;11.584;2024-03-06T01:02:22;7.10;99.90
4453;DHT22;2239;48.152;11.584;2024-03-06T01:04:47;7.10;99.90
4453;DHT22;2239;48.152;11.584;2024-03-06T01:07:13;7.10;99.90
4453;DHT22;2239;48.152;11.584;2024-03-06T01:09:38;7.10;99.90
4453;DHT22;2239;48.152;11.584;2024-03-06T01:12:04;7.10;99.90
4453;DHT22;2239;48.152;11.584;2024-03-06T01:14:30;7.10;99.90
4453;DHT22;2239;48.152;11.584;2024-03-06T01:16:56;7.10;99.90
4453;DHT22;2239;48.152;11.584;2024-03-06T01:19:22;7.10;99.90
4453;DHT22;2239;48.152;11.584;2024-03-06T01:21:48;7.00;99.90
4453;DHT22;2239;48.152;11.584;2024-03-06T01:24:14;7.00;99.90
4453;DHT22;2239;48.152;11.584;2024-03-06T01:26:39;6.90;99.90
4453;DHT22;2239;48.152;11.584;2024-03-06T01:29:06;6.90;99.90
4453;DHT22;2239;48.152;11.584;2024-03-06T01:31:31;6.90;99.90
4453;DHT22;2239;48.152;11.584;2024-03-06T01:33:57;6.70;99.90
4453;DHT22;2239;48.152;11.584;2024-03-06T01:36:22;6.70;99.90
4453;DHT22;2239;48.152;11.584;2024-03-06T01:38:48;6.70;99.90
4453;DHT22;2239;48.152;11.584;2024-03-06T01:41:14;6.80;99.90
4453;DHT22;2239;48.152;11.584;2024-03-06T01:43:40;6.80;99.90
4453;DHT22;2239;48.152;11.584;2024-03-06T01:46:06;6.90;99.90
4453;DHT22;2239;48.152;11.584;2024-03-06T01:48:32;6.90;99.90
4453;DHT22;2239;48.152;11.584;2024-03-06T01:51:00;6.90;99.90
4453;DHT22;2239;48.152;11.584;2024-03-06T01:53:29;6.90;99.90
4453;DHT22;2239;48.152;11.584;2024-03-06T01:55:56;6.90;99.90
4453;DHT22;2239;48.152;11.584;2024-03-06T01:58:23;6.80;99.90
4453;DHT22;2239;48.152;11.584;2024-03-06T02:00:49;6.70;99.90
4453;DHT22;2239;48.152;11.584;2024-03-06T02:03:16;6.70;99.90
4453;DHT22;2239;48.152;11.584;2024-03-06T02:05:42;6.60;99.90
4453;DHT22;2239;48.152;11.584;2024-03-06T02:08:08;6.60;99.90
4453;DHT22;2239;48.152;11.584;2024-03-06T02:10:34;6.50;99.90
4453;DHT22;2239;48.152;11.584;2024-03-06T02:13:00;6.50;99.90
4453;DHT22;2239;48.152;11.584;2024-03-06T02:15:26;6.50;99.90
4453;DHT22;2239;48.152;11.584;2024-03-06T02:17:52;6.50;99.90
4453;DHT22;2239;48.152;11.584;2024-03-06T02:20:25;6.50;99.90
4453;DHT22;2239;48.152;11.584;2024-03-06T02:22:51;6.50;99.90
4453;DHT22;2239;48.152;11.584;2024-03-06T02:25:17;6.40;99.90
4453;DHT22;2239;48.152;11.584;2024-03-06T02:27:44;6.50;99.90
4453;DHT22;2239;48.152;11.584;2024-03-06T02:30:10;6.50;99.90
4453;DHT22;2239;48.152;11.584;2024-03-06T02:32:36;6.40;99.90
4453;DHT22;2239;48.152;11.584;2024-03-06T02:35:02;6.40;99.90
4453;DHT22;2239;48.152;11.584;2024-03-06T02:37:28;6.40;99.90
4453;DHT22;2239;48.152;11.584;2024-03-06T02:39:54;6.40;99.90
4453;DHT22;2239;48.152;11.584;2024-03-06T02:42:20;6.40;99.90
4453;DHT22;2239;48.152;11.584;2024-03-06T02:44:45;6.40;99.90
4453;DHT22;2239;48.152;11.584;2024-03-06T02:47:11;6.30;99.90
4453;DHT22;2239;48.152;11.584;2024-03-06T02:49:36;6.30;99.90
4453;DHT22;2239;48.152;11.584;2024-03-06T02:52:02;6.30;99.90
4453;DHT22;2239;48.152;11.584;2024-03-06T02:54:28;6.30;99.90
4453;DHT22;2239;48.152;11.584;2024-03-06T02:56:53;6.30;99.90
4453;DHT22;2239;48.152;11.584;2024-03-06T02:59:19;6.30;99.90
4453;DHT22;2239;48.152;11.584;2024-03-06T03:01:45;6.30;99.90
4453;DHT22;2239;48.152;11.584;2024-03-06T03:04:10;6.20;99.90
4453;DHT22;2239;48.152;11.584;2024-03-06T03:06:36;6.20;99.90
4453;DHT22;2239;48.152;11.584;2024-03-06T03:09:02;6.20;99.90
4453;DHT22;2239;48.152;11.584;2024-03-06T03:11:29;6.20;99.90
4453;DHT22;2239;48.152;11.584;2024-03-06T03:13:55;6.20;99.90
4453;DHT22;2239;48.152;11.584;2024-03-06T03:16:21;6.20;99.90
4453;DHT22;2239;48.152;11.584;2024-03-06T03:18:46;6.20;99.90
4453;DHT22;2239;48.152;11.584;2024-03-06T03:21:13;6.20;99.90
4453;DHT22;2239;48.152;11.584;2024-03-06T03:23:39;6.20;99.90
4453;DHT22;2239;48.152;11.584;2024-03-06T03:26:07;6.30;99.90
4453;DHT22;2239;48.152;11.584;2024-03-06T03:28:33;6.20;99.90
4453;DHT22;2239;48.152;11.584;2024-03-06T03:30:58;6.20;99.90
4453;DHT22;2239;48.152;11.584;2024-03-06T03:33:24;6.10;99.90
4453;DHT22;2239;48.152;11.584;2024-03-06T03:35:50;6.10;99.90
4453;DHT22;2239;48.152;11.584;2024-03-06T03:38:15;6.00;99.90
4453;DHT22;2239;48.152;11.584;2024-03-06T03:40:41;6.00;99.90
4453;DHT22;2239;48.152;11.584;2024-03-06T03:43:07;6.10;99.90
4453;DHT22;2239;48.152;11.584;2024-03-06T03:45:33;6.10;99.90
4453;DHT22;2239;48.152;11.584;2024-03-06T03:48:00;6.10;99.90
4453;DHT22;2239;48.152;11.584;2024-03-06T03:50:28;6.00;99.90
4453;DHT22;2239;48.152;11.584;2024-03-06T03:52:54;6.00;99.90
4453;DHT22;2239;48.152;11.584;2024-03-06T03:55:20;5.80;99.90
4453;DHT22;2239;48.152;11.584;2024-03-06T03:57:45;5.70;99.90
4453;DHT22;2239;48.152;11.584;2024-03-06T04:00:12;5.70;99.90
4453;DHT22;2239;48.152;11.584;2024-03-06T04:02:38;5.80;99.90
4453;DHT22;2239;48.152;11.584;2024-03-06T04:05:04;5.90;99.90
4453;DHT22;2239;48.152;11.584;2024-03-06T04:07:30;5.80;99.90
4453;DHT22;2239;48.152;11.584;2024-03-06T04:09:55;5.90;99.90
4453;DHT22;2239;48.152;11.584;2024-03-06T04:12:21;6.00;99.90
4453;DHT22;2239;48.152;11.584;2024-03-06T04:14:46;6.00;99.90
4453;DHT22;2239;48.152;11.584;2024-03-06T04:17:12;5.90;99.90
4453;DHT22;2239;48.152;11.584;2024-03-06T04:19:37;5.90;99.90
4453;DHT22;2239;48.152;11.584;2024-03-06T04:22:03;6.00;99.90
4453;DHT22;2239;48.152;11.584;2024-03-06T04:24:29;6.10;99.90
4453;DHT22;2239;48.152;11.584;2024-03-06T04:26:54;6.10;99.90
4453;DHT22;2239;48.152;11.584;2024-03-06T04:29:20;6.10;99.90
4453;DHT22;2239;48.152;11.584;2024-03-06T04:31:45;6.20;99.90
4453;DHT22;2239;48.152;11.584;2024-03-06T04:34:11;6.20;99.90
4453;DHT22;2239;48.152;11.584;2024-03-06T04:36:36;6.20;99.90
4453;DHT22;2239;48.152;11.584;2024-03-06T04:39:02;6.20;99.90
4453;DHT22;2239;48.152;11.584;2024-03-06T04:41:33;6.20;99.90
4453;DHT22;2239;48.152;11.584;2024-03-06T04:43:58;6.10;99.90
4453;DHT22;2239;48.152;11.584;2024-03-06T04:46:26;6.10;99.90
4453;DHT22;2239;48.152;11.584;2024-03-06T04:48:52;6.10;99.90
4453;DHT22;2239;48.152;11.584;2024-03-06T04:51:17;6.10;99.90
4453;DHT22;2239;48.152;11.584;2024-03-06T04:53:46;6.20;99.90
4453;DHT22;2239;48.152;11.584;2024-03-06T04:56:11;6.10;99.90
4453;DHT22;2239;48.152;11.584;2024-03-06T04:58:38;6.10;99.90
4453;DHT22;2239;48.152;11.584;2024-03-06T05:01:03;6.00;99.90
4453;DHT22;2239;48.152;11.584;2024-03-06T05:03:29;5.90;99.90
4453;DHT22;2239;48.152;11.584;2024-03-06T05:05:55;5.90;99.90
4453;DHT22;2239;48.152;11.584;2024-03-06T05:08:20;5.80;99.90
4453;DHT22;2239;48.152;11.584;2024-03-06T05:10:46;5.80;99.90
4453;DHT22;2239;48.152;11.584;2024-03-06T05:13:11;5.70;99.90
4453;DHT22;2239;48.152;11.584;2024-03-06T05:15:37;5.70;99.90
4453;DHT22;2239;48.152;11.584;2024-03-06T05:18:04;5.60;99.90
4453;DHT22;2239;48.152;11.584;2024-03-06T05:20:30;5.50;99.90
4453;DHT22;2239;48.152;11.584;2024-03-06T05:22:58;5.30;99.90
4453;DHT22;2239;48.152;11.584;2024-03-06T05:25:24;5.30;99.90
4453;DHT22;2239;48.152;11.584;2024-03-06T05:27:50;5.20;99.90
4453;DHT22;2239;48.152;11.584;2024-03-06T05:30:15;5.20;99.90
4453;DHT22;2239;48.152;11.584;2024-03-06T05:32:41;5.20;99.90
4453;DHT22;2239;48.152;11.584;2024-03-06T05:35:07;5.20;99.90
4453;DHT22;2239;48.152;11.584;2024-03-06T05:37:35;5.20;99.90
4453;DHT22;2239;48.152;11.584;2024-03-06T05:40:01;5.10;99.90
4453;DHT22;2239;48.152;11.584;2024-03-06T05:42:30;5.20;99.90
4453;DHT22;2239;48.152;11.584;2024-03-06T05:44:57;5.10;99.90
4453;DHT22;2239;48.152;11.584;2024-03-06T05:47:26;5.10;99.90
4453;DHT22;2239;48.152;11.584;2024-03-06T05:49:52;5.10;99.90
4453;DHT22;2239;48.152;11.584;2024-03-06T05:52:17;5.20;99.90
4453;DHT22;2239;48.152;11.584;2024-03-06T05:54:43;5.20;99.90
4453;DHT22;2239;48.152;11.584;2024-03-06T05:57:08;5.20;99.90
4453;DHT22;2239;48.152;11.584;2024-03-06T05:59:34;5.20;99.90
4453;DHT22;2239;48.152;11.584;2024-03-06T06:01:59;5.30;99.90
4453;DHT22;2239;48.152;11.584;2024-03-06T06:04:25;5.30;99.90
4453;DHT22;2239;48.152;11.584;2024-03-06T06:06:51;5.30;99.90
4453;DHT22;2239;48.152;11.584;2024-03-06T06:09:17;5.30;99.90
4453;DHT22;2239;48.152;11.584;2024-03-06T06:11:44;5.30;99.90
4453;DHT22;2239;48.152;11.584;2024-03-06T06:14:09;5.30;99.90
4453;DHT22;2239;48.152;11.584;2024-03-06T06:16:36;5.40;99.90
4453;DHT22;2239;48.152;11.584;2024-03-06T06:19:02;5.30;99.90
4453;DHT22;2239;48.152;11.584;2024-03-06T06:21:28;5.40;99.90
4453;DHT22;2239;48.152;11.584;2024-03-06T06:23:53;5.30;99.90
4453;DHT22;2239;48.152;11.584;2024-03-06T06:26:19;5.30;99.90
4453;DHT22;2239;48.152;11.584;2024-03-06T06:28:46;5.20;99.90
4453;DHT22;2239;48.152;11.584;2024-03-06T06:31:11;5.20;99.90
4453;DHT22;2239;48.152;11.584;2024-03-06T06:33:37;5.20;99.90
4453;DHT22;2239;48.152;11.584;2024-03-06T06:36:03;5.30;99.90
4453;DHT22;2239;48.152;11.584;2024-03-06T06:38:29;5.30;99.90
4453;DHT22;2239;48.152;11.584;2024-03-06T06:40:55;5.40;99.90
4453;DHT22;2239;48.152;11.584;2024-03-06T06:43:21;5.40;99.90
4453;DHT22;2239;48.152;11.584;2024-03-06T06:45:46;5.40;99.90
4453;DHT22;2239;48.152;11.584;2024-03-06T06:48:12;5.50;99.90
4453;DHT22;2239;48.152;11.584;2024-03-06T06:50:37;5.60;99.90
4453;DHT22;2239;48.152;11.584;2024-03-06T06:53:03;5.60;99.90
4453;DHT22;2239;48.152;11.584;2024-03-06T06:55:29;5.60;99.90
4453;DHT22;2239;48.152;11.584;2024-03-06T06:57:54;5.70;99.90
4453;DHT22;2239;48.152;11.584;2024-03-06T07:00:21;5.70;99.90
4453;DHT22;2239;48.152;11.584;2024-03-06T07:02:48;5.80;99.90
4453;DHT22;2239;48.152;11.584;2024-03-06T07:05:14;5.80;99.90
4453;DHT22;2239;48.152;11.584;2024-03-06T07:07:40;5.90;99.90
4453;DHT22;2239;48.152;11.584;2024-03-06T07:10:06;5.90;99.90
4453;DHT22;2239;48.152;11.584;2024-03-06T07:12:32;5.90;99.90
4453;DHT22;2239;48.152;11.584;2024-03-06T07:14:58;5.80;99.90
4453;DHT22;2239;48.152;11.584;2024-03-06T07:17:25;5.80;99.90
4453;DHT22;2239;48.152;11.584;2024-03-06T07:19:50;5.80;99.90
4453;DHT22;2239;48.152;11.584;2024-03-06T07:22:18;5.70;99.90
4453;DHT22;2239;48.152;11.584;2024-03-06T07:24:43;5.70;99.90
4453;DHT22;2239;48.152;11.584;2024-03-06T07:27:09;5.70;99.90
4453;DHT22;2239;48.152;11.584;2024-03-06T07:29:35;5.60;99.90
4453;DHT22;2239;48.152;11.584;2024-03-06T07:32:01;5.60;99.90
4453;DHT22;2239;48.152;11.584;2024-03-06T07:34:26;5.70;99.90
4453;DHT22;2239;48.152;11.584;2024-03-06T07:36:52;5.70;99.90
4453;DHT22;2239;48.152;11.584;2024-03-06T07:39:21;5.60;99.90
4453;DHT22;2239;48.152;11.584;2024-03-06T07:41:47;5.70;99.90
4453;DHT22;2239;48.152;11.584;2024-03-06T07:44:12;5.60;99.90
4453;DHT22;2239;48.152;11.584;2024-03-06T07:46:39;5.60;99.90
4453;DHT22;2239;48.152;11.584;2024-03-06T07:49:04;5.70;99.90
4453;DHT22;2239;48.152;11.584;2024-03-06T07:51:31;5.60;99.90
4453;DHT22;2239;48.152;11.584;2024-03-06T07:53:56;5.70;99.90
4453;DHT22;2239;48.152;11.584;2024-03-06T07:56:23;5.70;99.90
4453;DHT22;2239;48.152;11.584;2024-03-06T07:58:48;5.70;99.90
4453;DHT22;2239;48.152;11.584;2024-03-06T08:01:15;5.70;99.90
4453;DHT22;2239;48.152;11.584;2024-03-06T08:03:41;5.70;99.90
4453;DHT22;2239;48.152;11.584;2024-03-06T08:06:08;5.80;99.90
4453;DHT22;2239;48.152;11.584;2024-03-06T08:08:35;5.80;99.90
4453;DHT22;2239;48.152;11.584;2024-03-06T08:11:01;5.80;99.90
4453;DHT22;2239;48.152;11.584;2024-03-06T08:13:27;5.80;99.90
4453;DHT22;2239;48.152;11.584;2024-03-06T08:15:53;5.80;99.90
4453;DHT22;2239;48.152;11.584;2024-03-06T08:18:18;5.80;99.90
4453;DHT22;2239;48.152;11.584;2024-03-06T08:20:44;5.80;99.90
4453;DHT22;2239;48.152;11.584;2024-03-06T08:23:09;5.90;99.90
4453;DHT22;2239;48.152;11.584;2024-03-06T08:25:35;5.80;99.90
4453;DHT22;2239;48.152;11.584;2024-03-06T08:28:01;5.80;99.90
4453;DHT22;2239;48.152;11.584;2024-03-06T08:30:28;5.80;99.90
4453;DHT22;2239;48.152;11.584;2024-03-06T08:32:56;5.80;99.90
4453;DHT22;2239;48.152;11.584;2024-03-06T08:35:21;5.90;99.90
4453;DHT22;2239;48.152;11.584;2024-03-06T08:37:49;5.90;99.90
4453;DHT22;2239;48.152;11.584;2024-03-06T08:40:18;5.90;99.90
4453;DHT22;2239;48.152;11.584;2024-03-06T08:42:44;5.90;99.90
4453;DHT22;2239;48.152;11.584;2024-03-06T08:45:11;5.90;99.90
4453;DHT22;2239;48.152;11.584;2024-03-06T08:47:37;5.80;99.90
4453;DHT22;2239;48.152;11.584;2024-03-06T08:50:03;5.80;99.90
4453;DHT22;2239;48.152;11.584;2024-03-06T08:52:29;5.70;99.90
4453;DHT22;2239;48.152;11.584;2024-03-06T08:54:56;5.70;99.90
4453;DHT22;2239;48.152;11.584;2024-03-06T08:57:22;5.70;99.90
4453;DHT22;2239;48.152;11.584;2024-03-06T08:59:47;5.80;99.90
4453;DHT22;2239;48.152;11.584;2024-03-06T09:02:14;5.80;99.90
4453;DHT22;2239;48.152;11.584;2024-03-06T09:04:44;5.90;99.90
4453;DHT22;2239;48.152;11.584;2024-03-06T09:07:09;5.90;99.90
4453;DHT22;2239;48.152;11.584;2024-03-06T09:09:36;5.90;99.90
4453;DHT22;2239;48.152;11.584;2024-03-06T09:12:03;5.90;99.90
4453;DHT22;2239;48.152;11.584;2024-03-06T09:14:33;5.80;99.90
4453;DHT22;2239;48.152;11.584;2024-03-06T09:17:00;5.70;99.90
4453;DHT22;2239;48.152;11.584;2024-03-06T09:19:26;5.70;99.90
4453;DHT22;2239;48.152;11.584;2024-03-06T09:21:51;5.70;99.90
4453;DHT22;2239;48.152;11.584;2024-03-06T09:24:17;5.70;99.90
4453;DHT22;2239;48.152;11.584;2024-03-06T09:26:47;5.80;99.90
4453;DHT22;2239;48.152;11.584;2024-03-06T09:29:13;5.70;99.90
4453;DHT22;2239;48.152;11.584;2024-03-06T09:31:38;5.70;99.90
4453;DHT22;2239;48.152;11.584;2024-03-06T09:34:04;5.70;99.90
4453;DHT22;2239;48.152;11.584;2024-03-06T09:36:29;5.80;99.90
4453;DHT22;2239;48.152;11.584;2024-03-06T09:38:55;5.80;99.90
4453;DHT22;2239;48.152;11.584;2024-03-06T09:41:21;5.80;99.90
4453;DHT22;2239;48.152;11.584;2024-03-06T09:43:47;5.80;99.90
4453;DHT22;2239;48.152;11.584;2024-03-06T09:46:13;5.80;99.90
4453;DHT22;2239;48.152;11.584;2024-03-06T09:48:46;5.80;99.90
4453;DHT22;2239;48.152;11.584;2024-03-06T09:51:12;5.80;99.90
4453;DHT22;2239;48.152;11.584;2024-03-06T09:53:38;5.80;99.90
4453;DHT22;2239;48.152;11.584;2024-03-06T09:56:05;5.80;99.90
4453;DHT22;2239;48.152;11.584;2024-03-06T09:58:31;5.80;99.90
4453;DHT22;2239;48.152;11.584;2024-03-06T10:00:59;5.90;99.90
4453;DHT22;2239;48.152;11.584;2024-03-06T10:03:26;5.90;99.90
4453;DHT22;2239;48.152;11.584;2024-03-06T10:05:52;5.90;99.90
4453;DHT22;2239;48.152;11.584;2024-03-06T10:08:20;6.00;99.90
4453;DHT22;2239;48.152;11.584;2024-03-06T10:10:49;6.00;99.90
4453;DHT22;2239;48.152;11.584;2024-03-06T10:13:16;6.00;99.90
4453;DHT22;2239;48.152;11.584;2024-03-06T10:15:54;6.00;99.90
4453;DHT22;2239;48.152;11.584;2024-03-06T10:18:20;6.00;99.90
4453;DHT22;2239;48.152;11.584;2024-03-06T10:20:46;6.10;99.90
4453;DHT22;2239;48.152;11.584;2024-03-06T10:23:11;6.20;99.90
4453;DHT22;2239;48.152;11.584;2024-03-06T10:25:37;6.20;99.90
4453;DHT22;2239;48.152;11.584;2024-03-06T10:28:04;6.00;99.90
4453;DHT22;2239;48.152;11.584;2024-03-06T10:30:31;5.90;99.90
4453;DHT22;2239;48.152;11.584;2024-03-06T10:32:56;5.90;99.90
4453;DHT22;2239;48.152;11.584;2024-03-06T10:35:22;5.90;99.90
4453;DHT22;2239;48.152;11.584;2024-03-06T10:37:48;5.80;99.90
4453;DHT22;2239;48.152;11.584;2024-03-06T10:40:15;5.80;99.90
4453;DHT22;2239;48.152;11.584;2024-03-06T10:42:42;5.70;99.90
4453;DHT22;2239;48.152;11.584;2024-03-06T10:45:13;5.80;99.90
4453;DHT22;2239;48.152;11.584;2024-03-06T10:47:39;5.80;99.90
4453;DHT22;2239;48.152;11.584;2024-03-06T10:50:06;6.00;99.90
4453;DHT22;2239;48.152;11.584;2024-03-06T10:52:36;6.10;99.90
4453;DHT22;2239;48.152;11.584;2024-03-06T10:55:04;6.10;99.90
4453;DHT22;2239;48.152;11.584;2024-03-06T10:57:30;6.10;99.90
4453;DHT22;2239;48.152;11.584;2024-03-06T10:59:56;6.10;99.90
4453;DHT22;2239;48.152;11.584;2024-03-06T11:02:24;6.20;99.90
4453;DHT22;2239;48.152;11.584;2024-03-06T11:04:52;6.20;99.90
4453;DHT22;2239;48.152;11.584;2024-03-06T11:07:18;6.20;99.90
4453;DHT22;2239;48.152;11.584;2024-03-06T11:09:44;6.20;99.90
4453;DHT22;2239;48.152;11.584;2024-03-06T11:12:10;6.20;99.90
4453;DHT22;2239;48.152;11.584;2024-03-06T11:14:39;6.30;99.90
4453;DHT22;2239;48.152;11.584;2024-03-06T11:17:11;6.20;99.90
4453;DHT22;2239;48.152;11.584;2024-03-06T11:28:25;6.20;99.90
4453;DHT22;2239;48.152;11.584;2024-03-06T11:31:00;6.20;99.90
4453;DHT22;2239;48.152;11.584;2024-03-06T11:33:41;6.20;99.90
4453;DHT22;2239;48.152;11.584;2024-03-06T11:36:15;6.30;99.90
4453;DHT22;2239;48.152;11.584;2024-03-06T11:44:19;6.30;99.90
4453;DHT22;2239;48.152;11.584;2024-03-06T11:46:59;6.30;99.90
4453;DHT22;2239;48.152;11.584;2024-03-06T11:49:30;6.40;99.90
4453;DHT22;2239;48.152;11.584;2024-03-06T11:52:08;6.50;99.90
4453;DHT22;2239;48.152;11.584;2024-03-06T11:54:34;6.60;99.90
4453;DHT22;2239;48.152;11.584;2024-03-06T11:57:02;6.60;99.90
4453;DHT22;2239;48.152;11.584;2024-03-06T11:59:46;6.50;99.90
4453;DHT22;2239;48.152;11.584;2024-03-06T12:02:11;6.40;99.90
4453;DHT22;2239;48.152;11.584;2024-03-06T12:04:37;6.40;99.90
4453;DHT22;2239;48.152;11.584;2024-03-06T12:07:03;6.50;99.90
4453;DHT22;2239;48.152;11.584;2024-03-06T12:09:33;6.40;99.90
4453;DHT22;2239;48.152;11.584;2024-03-06T12:11:59;6.40;99.90
4453;DHT22;2239;48.152;11.584;2024-03-06T12:14:25;6.40;99.90
4453;DHT22;2239;48.152;11.584;2024-03-06T12:16:58;6.40;99.90
4453;DHT22;2239;48.152;11.584;2024-03-06T12:19:34;6.40;99.90
4453;DHT22;2239;48.152;11.584;2024-03-06T12:22:04;6.40;99.90
4453;DHT22;2239;48.152;11.584;2024-03-06T12:24:30;6.40;99.90
4453;DHT22;2239;48.152;11.584;2024-03-06T12:27:04;6.40;99.90
4453;DHT22;2239;48.152;11.584;2024-03-06T12:29:31;6.40;99.90
4453;DHT22;2239;48.152;11.584;2024-03-06T12:31:58;6.40;99.90
4453;DHT22;2239;48.152;11.584;2024-03-06T12:34:23;6.40;99.90
4453;DHT22;2239;48.152;11.584;2024-03-06T12:36:49;6.40;99.90
4453;DHT22;2239;48.152;11.584;2024-03-06T12:39:15;6.40;99.90
4453;DHT22;2239;48.152;11.584;2024-03-06T12:41:43;6.40;99.90
4453;DHT22;2239;48.152;11.584;2024-03-06T12:44:10;6.40;99.90
4453;DHT22;2239;48.152;11.584;2024-03-06T12:46:36;6.40;99.90
4453;DHT22;2239;48.152;11.584;2024-03-06T12:49:02;6.30;99.90
4453;DHT22;2239;48.152;11.584;2024-03-06T12:51:27;6.20;99.90
4453;DHT22;2239;48.152;11.584;2024-03-06T12:53:53;6.10;99.90
4453;DHT22;2239;48.152;11.584;2024-03-06T12:56:19;6.00;99.90
4453;DHT22;2239;48.152;11.584;2024-03-06T12:58:45;6.00;99.90
4453;DHT22;2239;48.152;11.584;2024-03-06T13:01:10;6.10;99.90
4453;DHT22;2239;48.152;11.584;2024-03-06T13:03:36;6.10;99.90
4453;DHT22;2239;48.152;11.584;2024-03-06T13:06:03;6.10;99.90
4453;DHT22;2239;48.152;11.584;2024-03-06T13:08:32;6.20;99.90
4453;DHT22;2239;48.152;11.584;2024-03-06T13:10:58;6.20;99.90
4453;DHT22;2239;48.152;11.584;2024-03-06T13:13:24;6.30;99.90
4453;DHT22;2239;48.152;11.584;2024-03-06T13:15:51;6.30;99.90
4453;DHT22;2239;48.152;11.584;2024-03-06T13:18:17;6.30;99.90
4453;DHT22;2239;48.152;11.584;2024-03-06T13:20:43;6.20;99.90
4453;DHT22;2239;48.152;11.584;2024-03-06T13:23:09;6.10;99.90
4453;DHT22;2239;48.152;11.584;2024-03-06T13:25:35;6.10;99.90
4453;DHT22;2239;48.152;11.584;2024-03-06T13:28:00;6.20;99.90
4453;DHT22;2239;48.152;11.584;2024-03-06T13:30:26;6.20;99.90
4453;DHT22;2239;48.152;11.584;2024-03-06T13:32:53;6.10;99.90
4453;DHT22;2239;48.152;11.584;2024-03-06T13:35:19;6.10;99.90
4453;DHT22;2239;48.152;11.584;2024-03-06T13:37:46;6.00;99.90
4453;DHT22;2239;48.152;11.584;2024-03-06T13:40:12;6.00;99.90
4453;DHT22;2239;48.152;11.584;2024-03-06T13:42:42;6.10;99.90
4453;DHT22;2239;48.152;11.584;2024-03-06T13:45:08;6.10;99.90
4453;DHT22;2239;48.152;11.584;2024-03-06T13:47:43;6.20;99.90
4453;DHT22;2239;48.152;11.584;2024-03-06T13:50:13;6.30;99.90
4453;DHT22;2239;48.152;11.584;2024-03-06T13:52:40;6.40;99.90
4453;DHT22;2239;48.152;11.584;2024-03-06T13:55:06;6.40;99.90
4453;DHT22;2239;48.152;11.584;2024-03-06T13:57:35;6.30;99.90
4453;DHT22;2239;48.152;11.584;2024-03-06T14:00:03;6.30;99.90
4453;DHT22;2239;48.152;11.584;2024-03-06T14:02:31;6.30;99.90
4453;DHT22;2239;48.152;11.584;2024-03-06T14:04:57;6.40;99.90
4453;DHT22;2239;48.152;11.584;2024-03-06T14:07:23;6.30;99.90
4453;DHT22;2239;48.152;11.584;2024-03-06T14:09:50;6.30;99.90
4453;DHT22;2239;48.152;11.584;2024-03-06T14:12:16;6.30;99.90
4453;DHT22;2239;48.152;11.584;2024-03-06T14:14:41;6.30;99.90
4453;DHT22;2239;48.152;11.584;2024-03-06T14:17:07;6.40;99.90
4453;DHT22;2239;48.152;11.584;2024-03-06T14:19:32;6.40;99.90
4453;DHT22;2239;48.152;11.584;2024-03-06T14:21:58;6.50;99.90
4453;DHT22;2239;48.152;11.584;2024-03-06T14:24:23;6.50;99.90
4453;DHT22;2239;48.152;11.584;2024-03-06T14:26:49;6.50;99.90
4453;DHT22;2239;48.152;11.584;2024-03-06T14:29:15;6.60;99.90
4453;DHT22;2239;48.152;11.584;2024-03-06T14:31:40;6.60;99.90
4453;DHT22;2239;48.152;11.584;2024-03-06T14:34:06;6.60;99.90
4453;DHT22;2239;48.152;11.584;2024-03-06T14:36:32;6.50;99.90
4453;DHT22;2239;48.152;11.584;2024-03-06T14:38:59;6.50;99.90
4453;DHT22;2239;48.152;11.584;2024-03-06T14:41:24;6.50;99.90
4453;DHT22;2239;48.152;11.584;2024-03-06T14:43:50;6.40;99.90
4453;DHT22;2239;48.152;11.584;2024-03-06T14:46:15;6.50;99.90
4453;DHT22;2239;48.152;11.584;2024-03-06T14:48:41;6.60;99.90
4453;DHT22;2239;48.152;11.584;2024-03-06T14:51:07;6.50;99.90
4453;DHT22;2239;48.152;11.584;2024-03-06T14:53:32;6.50;99.90
4453;DHT22;2239;48.152;11.584;2024-03-06T14:55:58;6.50;99.90
4453;DHT22;2239;48.152;11.584;2024-03-06T14:58:24;6.50;99.90
4453;DHT22;2239;48.152;11.584;2024-03-06T15:00:50;6.50;99.90
4453;DHT22;2239;48.152;11.584;2024-03-06T15:03:16;6.40;99.90
4453;DHT22;2239;48.152;11.584;2024-03-06T15:05:43;6.40;99.90
4453;DHT22;2239;48.152;11.584;2024-03-06T15:08:09;6.40;99.90
4453;DHT22;2239;48.152;11.584;2024-03-06T15:10:35;6.40;99.90
4453;DHT22;2239;48.152;11.584;2024-03-06T15:13:00;6.40;99.90
4453;DHT22;2239;48.152;11.584;2024-03-06T15:15:26;6.40;99.90
4453;DHT22;2239;48.152;11.584;2024-03-06T15:17:52;6.50;99.90
4453;DHT22;2239;48.152;11.584;2024-03-06T15:20:17;6.60;99.90
4453;DHT22;2239;48.152;11.584;2024-03-06T15:22:43;6.60;99.90
4453;DHT22;2239;48.152;11.584;2024-03-06T15:25:10;6.50;99.90
4453;DHT22;2239;48.152;11.584;2024-03-06T15:27:36;6.50;99.90
4453;DHT22;2239;48.152;11.584;2024-03-06T15:30:06;6.50;99.90
4453;DHT22;2239;48.152;11.584;2024-03-06T15:32:33;6.50;99.90
4453;DHT22;2239;48.152;11.584;2024-03-06T15:34:58;6.40;99.90
4453;DHT22;2239;48.152;11.584;2024-03-06T15:37:25;6.40;99.90
4453;DHT22;2239;48.152;11.584;2024-03-06T15:39:51;6.40;99.90
4453;DHT22;2239;48.152;11.584;2024-03-06T15:42:17;6.40;99.90
4453;DHT22;2239;48.152;11.584;2024-03-06T15:44:42;6.40;99.90
4453;DHT22;2239;48.152;11.584;2024-03-06T15:47:08;6.40;99.90
4453;DHT22;2239;48.152;11.584;2024-03-06T15:49:34;6.30;99.90
4453;DHT22;2239;48.152;11.584;2024-03-06T15:51:59;6.30;99.90
4453;DHT22;2239;48.152;11.584;2024-03-06T15:54:25;6.30;99.90
4453;DHT22;2239;48.152;11.584;2024-03-06T15:56:51;6.40;99.90
4453;DHT22;2239;48.152;11.584;2024-03-06T15:59:16;6.40;99.90
4453;DHT22;2239;48.152;11.584;2024-03-06T16:01:42;6.30;99.90
4453;DHT22;2239;48.152;11.584;2024-03-06T16:04:08;6.30;99.90
4453;DHT22;2239;48.152;11.584;2024-03-06T16:06:33;6.40;99.90
4453;DHT22;2239;48.152;11.584;2024-03-06T16:09:00;6.40;99.90
4453;DHT22;2239;48.152;11.584;2024-03-06T16:11:26;6.50;99.90